sensor_id;sensor_type;location;lat;lon;timestamp;P1;durP1;ratioP1;P2;durP2;ratioP2
51286;SDS011;37364;46.974;18.916;2022-10-15T00:01:54;53.13;;;38.20;;
51286;SDS011;37364;46.974;18.916;2022-10-15T00:04:27;56.13;;;40.58;;
51286;SDS011;37364;46.974;18.916;2022-10-15T00:06:59;63.28;;;40.35;;
51286;SDS011;37364;46.974;18.916;2022-10-15T00:09:29;61.45;;;40.13;;
51286;SDS011;37364;46.974;18.916;2022-10-15T00:12:00;59.35;;;39.10;;
51286;SDS011;37364;46.974;18.916;2022-10-15T00:14:30;72.20;;;41.05;;
51286;SDS011;37364;46.974;18.916;2022-10-15T00:17:00;63.03;;;39.25;;
51286;SDS011;37364;46.974;18.916;2022-10-15T00:19:33;64.03;;;42.42;;
51286;SDS011;37364;46.974;18.916;2022-10-15T00:22:06;62.55;;;43.72;;
51286;SDS011;37364;46.974;18.916;2022-10-15T00:24:36;77.17;;;40.67;;
51286;SDS011;37364;46.974;18.916;2022-10-15T00:27:07;61.50;;;41.75;;
51286;SDS011;37364;46.974;18.916;2022-10-15T00:29:41;71.45;;;42.00;;
51286;SDS011;37364;46.974;18.916;2022-10-15T00:32:11;77.78;;;42.90;;
51286;SDS011;37364;46.974;18.916;2022-10-15T00:34:44;61.55;;;42.25;;
51286;SDS011;37364;46.974;18.916;2022-10-15T00:37:15;70.80;;;42.92;;
51286;SDS011;37364;46.974;18.916;2022-10-15T00:39:47;64.47;;;43.42;;
51286;SDS011;37364;46.974;18.916;2022-10-15T00:42:17;64.20;;;42.45;;
51286;SDS011;37364;46.974;18.916;2022-10-15T00:44:49;73.60;;;41.95;;
51286;SDS011;37364;46.974;18.916;2022-10-15T00:47:23;62.65;;;41.80;;
51286;SDS011;37364;46.974;18.916;2022-10-15T00:50:03;63.38;;;41.72;;
51286;SDS011;37364;46.974;18.916;2022-10-15T00:52:40;73.85;;;44.42;;
51286;SDS011;37364;46.974;18.916;2022-10-15T00:55:15;61.35;;;42.83;;
51286;SDS011;37364;46.974;18.916;2022-10-15T00:57:50;64.35;;;41.70;;
51286;SDS011;37364;46.974;18.916;2022-10-15T01:00:21;63.97;;;42.30;;
51286;SDS011;37364;46.974;18.916;2022-10-15T01:02:52;66.55;;;42.78;;
51286;SDS011;37364;46.974;18.916;2022-10-15T01:05:25;69.38;;;42.80;;
51286;SDS011;37364;46.974;18.916;2022-10-15T01:07:55;55.75;;;40.92;;
51286;SDS011;37364;46.974;18.916;2022-10-15T01:10:27;66.72;;;44.53;;
51286;SDS011;37364;46.974;18.916;2022-10-15T01:13:07;64.90;;;41.20;;
51286;SDS011;37364;46.974;18.916;2022-10-15T01:15:47;68.40;;;44.45;;
51286;SDS011;37364;46.974;18.916;2022-10-15T01:18:25;60.50;;;42.80;;
51286;SDS011;37364;46.974;18.916;2022-10-15T01:21:06;64.53;;;42.53;;
51286;SDS011;37364;46.974;18.916;2022-10-15T01:24:00;66.28;;;43.28;;
51286;SDS011;37364;46.974;18.916;2022-10-15T01:32:59;66.65;;;43.70;;
51286;SDS011;37364;46.974;18.916;2022-10-15T01:35:47;60.55;;;43.15;;
51286;SDS011;37364;46.974;18.916;2022-10-15T01:41:15;69.15;;;43.25;;
51286;SDS011;37364;46.974;18.916;2022-10-15T01:43:57;75.80;;;46.00;;
51286;SDS011;37364;46.974;18.916;2022-10-15T01:46:49;55.83;;;39.78;;
51286;SDS011;37364;46.974;18.916;2022-10-15T01:49:25;63.22;;;43.63;;
51286;SDS011;37364;46.974;18.916;2022-10-15T01:52:04;65.03;;;44.10;;
51286;SDS011;37364;46.974;18.916;2022-10-15T01:54:38;63.03;;;46.05;;
51286;SDS011;37364;46.974;18.916;2022-10-15T01:57:10;69.50;;;44.00;;
51286;SDS011;37364;46.974;18.916;2022-10-15T01:59:41;67.72;;;46.40;;
51286;SDS011;37364;46.974;18.916;2022-10-15T02:02:16;79.50;;;44.70;;
51286;SDS011;37364;46.974;18.916;2022-10-15T02:04:47;73.25;;;45.50;;
51286;SDS011;37364;46.974;18.916;2022-10-15T02:07:23;68.15;;;43.20;;
51286;SDS011;37364;46.974;18.916;2022-10-15T02:10:03;60.28;;;44.42;;
51286;SDS011;37364;46.974;18.916;2022-10-15T02:12:41;86.65;;;44.75;;
51286;SDS011;37364;46.974;18.916;2022-10-15T02:15:24;73.13;;;43.70;;
51286;SDS011;37364;46.974;18.916;2022-10-15T02:18:08;59.80;;;39.97;;
51286;SDS011;37364;46.974;18.916;2022-10-15T02:20:43;50.55;;;37.28;;
51286;SDS011;37364;46.974;18.916;2022-10-15T02:23:20;53.70;;;34.50;;
51286;SDS011;37364;46.974;18.916;2022-10-15T02:25:59;55.58;;;34.25;;
51286;SDS011;37364;46.974;18.916;2022-10-15T02:28:32;46.28;;;32.67;;
51286;SDS011;37364;46.974;18.916;2022-10-15T02:31:05;51.47;;;33.67;;
51286;SDS011;37364;46.974;18.916;2022-10-15T02:33:43;48.30;;;33.22;;
51286;SDS011;37364;46.974;18.916;2022-10-15T02:36:14;47.60;;;32.50;;
51286;SDS011;37364;46.974;18.916;2022-10-15T02:38:47;51.42;;;34.20;;
51286;SDS011;37364;46.974;18.916;2022-10-15T02:41:20;54.47;;;33.90;;
51286;SDS011;37364;46.974;18.916;2022-10-15T02:43:50;51.35;;;31.02;;
51286;SDS011;37364;46.974;18.916;2022-10-15T02:46:21;46.47;;;32.47;;
51286;SDS011;37364;46.974;18.916;2022-10-15T02:48:54;61.58;;;32.47;;
51286;SDS011;37364;46.974;18.916;2022-10-15T02:51:25;44.22;;;30.95;;
51286;SDS011;37364;46.974;18.916;2022-10-15T02:53:55;52.47;;;31.13;;
51286;SDS011;37364;46.974;18.916;2022-10-15T02:56:26;44.05;;;30.73;;
51286;SDS011;37364;46.974;18.916;2022-10-15T02:59:01;51.40;;;30.05;;
51286;SDS011;37364;46.974;18.916;2022-10-15T03:01:32;42.38;;;28.75;;
51286;SDS011;37364;46.974;18.916;2022-10-15T03:04:06;42.92;;;29.10;;
51286;SDS011;37364;46.974;18.916;2022-10-15T03:06:37;45.97;;;28.23;;
51286;SDS011;37364;46.974;18.916;2022-10-15T03:09:07;46.05;;;29.05;;
51286;SDS011;37364;46.974;18.916;2022-10-15T03:11:38;43.03;;;28.50;;
51286;SDS011;37364;46.974;18.916;2022-10-15T03:14:08;39.17;;;27.55;;
51286;SDS011;37364;46.974;18.916;2022-10-15T03:16:38;44.58;;;27.10;;
51286;SDS011;37364;46.974;18.916;2022-10-15T03:19:12;40.85;;;28.73;;
51286;SDS011;37364;46.974;18.916;2022-10-15T03:21:44;42.08;;;26.92;;
51286;SDS011;37364;46.974;18.916;2022-10-15T03:24:15;48.97;;;26.15;;
51286;SDS011;37364;46.974;18.916;2022-10-15T03:26:47;48.05;;;26.77;;
51286;SDS011;37364;46.974;18.916;2022-10-15T03:29:17;40.72;;;26.85;;
51286;SDS011;37364;46.974;18.916;2022-10-15T03:31:54;47.13;;;25.33;;
51286;SDS011;37364;46.974;18.916;2022-10-15T03:34:28;42.90;;;24.98;;
51286;SDS011;37364;46.974;18.916;2022-10-15T03:39:29;35.40;;;24.05;;
51286;SDS011;37364;46.974;18.916;2022-10-15T03:42:02;35.42;;;24.70;;
51286;SDS011;37364;46.974;18.916;2022-10-15T03:44:38;40.30;;;24.83;;
51286;SDS011;37364;46.974;18.916;2022-10-15T03:47:11;37.85;;;25.20;;
51286;SDS011;37364;46.974;18.916;2022-10-15T03:49:47;31.88;;;23.77;;
51286;SDS011;37364;46.974;18.916;2022-10-15T03:52:18;44.55;;;25.00;;
51286;SDS011;37364;46.974;18.916;2022-10-15T03:54:52;33.40;;;25.13;;
51286;SDS011;37364;46.974;18.916;2022-10-15T03:57:23;42.97;;;25.30;;
51286;SDS011;37364;46.974;18.916;2022-10-15T04:00:00;36.67;;;26.92;;
51286;SDS011;37364;46.974;18.916;2022-10-15T04:02:37;45.33;;;27.58;;
51286;SDS011;37364;46.974;18.916;2022-10-15T04:05:21;41.95;;;28.42;;
51286;SDS011;37364;46.974;18.916;2022-10-15T04:08:02;39.88;;;27.52;;
51286;SDS011;37364;46.974;18.916;2022-10-15T04:10:37;42.30;;;27.85;;
51286;SDS011;37364;46.974;18.916;2022-10-15T04:13:08;38.17;;;26.13;;
51286;SDS011;37364;46.974;18.916;2022-10-15T04:15:40;51.05;;;29.58;;
51286;SDS011;37364;46.974;18.916;2022-10-15T04:18:12;37.45;;;24.30;;
51286;SDS011;37364;46.974;18.916;2022-10-15T04:20:46;44.78;;;26.15;;
51286;SDS011;37364;46.974;18.916;2022-10-15T04:23:21;40.15;;;26.75;;
51286;SDS011;37364;46.974;18.916;2022-10-15T04:26:10;50.17;;;28.85;;
51286;SDS011;37364;46.974;18.916;2022-10-15T04:28:40;42.95;;;26.67;;
51286;SDS011;37364;46.974;18.916;2022-10-15T04:31:10;32.55;;;25.70;;
51286;SDS011;37364;46.974;18.916;2022-10-15T04:33:41;48.20;;;26.55;;
51286;SDS011;37364;46.974;18.916;2022-10-15T04:36:15;39.28;;;26.95;;
51286;SDS011;37364;46.974;18.916;2022-10-15T04:38:53;39.70;;;25.83;;
51286;SDS011;37364;46.974;18.916;2022-10-15T04:41:42;46.30;;;26.35;;
51286;SDS011;37364;46.974;18.916;2022-10-15T04:44:20;34.97;;;25.35;;
51286;SDS011;37364;46.974;18.916;2022-10-15T04:46:54;40.33;;;24.98;;
51286;SDS011;37364;46.974;18.916;2022-10-15T04:49:43;34.55;;;25.20;;
51286;SDS011;37364;46.974;18.916;2022-10-15T04:52:37;35.75;;;25.45;;
51286;SDS011;37364;46.974;18.916;2022-10-15T04:55:10;39.40;;;25.75;;
51286;SDS011;37364;46.974;18.916;2022-10-15T04:57:40;36.35;;;24.90;;
51286;SDS011;37364;46.974;18.916;2022-10-15T05:00:11;39.78;;;24.63;;
51286;SDS011;37364;46.974;18.916;2022-10-15T05:03:03;41.03;;;25.17;;
51286;SDS011;37364;46.974;18.916;2022-10-15T05:05:46;33.03;;;22.88;;
51286;SDS011;37364;46.974;18.916;2022-10-15T05:08:19;40.00;;;24.00;;
51286;SDS011;37364;46.974;18.916;2022-10-15T05:11:10;38.97;;;23.92;;
51286;SDS011;37364;46.974;18.916;2022-10-15T05:13:41;40.53;;;25.42;;
51286;SDS011;37364;46.974;18.916;2022-10-15T05:16:12;41.05;;;25.48;;
51286;SDS011;37364;46.974;18.916;2022-10-15T05:18:45;43.05;;;25.98;;
51286;SDS011;37364;46.974;18.916;2022-10-15T05:21:17;37.73;;;24.80;;
51286;SDS011;37364;46.974;18.916;2022-10-15T05:23:55;40.30;;;25.35;;
51286;SDS011;37364;46.974;18.916;2022-10-15T05:29:17;41.53;;;27.10;;
51286;SDS011;37364;46.974;18.916;2022-10-15T05:31:48;37.20;;;26.13;;
51286;SDS011;37364;46.974;18.916;2022-10-15T05:34:22;46.40;;;25.85;;
51286;SDS011;37364;46.974;18.916;2022-10-15T05:37:00;56.35;;;26.52;;
51286;SDS011;37364;46.974;18.916;2022-10-15T05:39:34;34.40;;;26.23;;
51286;SDS011;37364;46.974;18.916;2022-10-15T05:42:04;49.80;;;28.35;;
51286;SDS011;37364;46.974;18.916;2022-10-15T05:47:07;47.55;;;26.65;;
51286;SDS011;37364;46.974;18.916;2022-10-15T05:49:39;38.67;;;26.50;;
51286;SDS011;37364;46.974;18.916;2022-10-15T05:52:14;39.47;;;27.23;;
51286;SDS011;37364;46.974;18.916;2022-10-15T05:55:07;42.75;;;27.00;;
51286;SDS011;37364;46.974;18.916;2022-10-15T05:57:38;35.53;;;26.73;;
51286;SDS011;37364;46.974;18.916;2022-10-15T06:00:08;41.50;;;27.50;;
51286;SDS011;37364;46.974;18.916;2022-10-15T06:02:39;40.00;;;27.58;;
51286;SDS011;37364;46.974;18.916;2022-10-15T06:05:09;34.83;;;26.65;;
51286;SDS011;37364;46.974;18.916;2022-10-15T06:07:39;35.45;;;26.85;;
51286;SDS011;37364;46.974;18.916;2022-10-15T06:10:13;36.83;;;27.60;;
51286;SDS011;37364;46.974;18.916;2022-10-15T06:12:47;46.03;;;28.00;;
51286;SDS011;37364;46.974;18.916;2022-10-15T06:15:18;46.90;;;27.67;;
51286;SDS011;37364;46.974;18.916;2022-10-15T06:17:51;54.83;;;28.80;;
51286;SDS011;37364;46.974;18.916;2022-10-15T06:20:22;42.90;;;26.15;;
51286;SDS011;37364;46.974;18.916;2022-10-15T06:22:55;52.03;;;27.27;;
51286;SDS011;37364;46.974;18.916;2022-10-15T06:25:28;38.83;;;27.50;;
51286;SDS011;37364;46.974;18.916;2022-10-15T06:27:59;42.00;;;27.98;;
51286;SDS011;37364;46.974;18.916;2022-10-15T06:30:40;35.40;;;28.15;;
51286;SDS011;37364;46.974;18.916;2022-10-15T06:35:44;37.50;;;28.13;;
51286;SDS011;37364;46.974;18.916;2022-10-15T06:38:14;44.75;;;27.70;;
51286;SDS011;37364;46.974;18.916;2022-10-15T06:40:47;36.83;;;26.30;;
51286;SDS011;37364;46.974;18.916;2022-10-15T06:43:17;41.43;;;28.57;;
51286;SDS011;37364;46.974;18.916;2022-10-15T06:45:47;45.63;;;28.02;;
51286;SDS011;37364;46.974;18.916;2022-10-15T06:48:18;48.38;;;26.48;;
51286;SDS011;37364;46.974;18.916;2022-10-15T06:50:48;50.65;;;26.38;;
51286;SDS011;37364;46.974;18.916;2022-10-15T06:53:18;46.70;;;26.77;;
51286;SDS011;37364;46.974;18.916;2022-10-15T06:55:51;46.83;;;26.90;;
51286;SDS011;37364;46.974;18.916;2022-10-15T06:58:27;32.03;;;25.48;;
51286;SDS011;37364;46.974;18.916;2022-10-15T07:01:01;62.45;;;27.48;;
51286;SDS011;37364;46.974;18.916;2022-10-15T07:03:34;36.33;;;24.27;;
51286;SDS011;37364;46.974;18.916;2022-10-15T07:06:06;37.08;;;25.10;;
51286;SDS011;37364;46.974;18.916;2022-10-15T07:08:37;34.90;;;23.80;;
51286;SDS011;37364;46.974;18.916;2022-10-15T07:11:10;37.85;;;23.60;;
51286;SDS011;37364;46.974;18.916;2022-10-15T07:13:41;35.72;;;24.73;;
51286;SDS011;37364;46.974;18.916;2022-10-15T07:16:11;29.58;;;23.95;;
51286;SDS011;37364;46.974;18.916;2022-10-15T07:18:41;38.80;;;24.00;;
51286;SDS011;37364;46.974;18.916;2022-10-15T07:21:12;44.38;;;22.95;;
51286;SDS011;37364;46.974;18.916;2022-10-15T07:23:42;34.90;;;22.98;;
51286;SDS011;37364;46.974;18.916;2022-10-15T07:26:15;50.88;;;23.23;;
51286;SDS011;37364;46.974;18.916;2022-10-15T07:28:45;34.00;;;22.75;;
51286;SDS011;37364;46.974;18.916;2022-10-15T07:31:15;27.85;;;21.25;;
51286;SDS011;37364;46.974;18.916;2022-10-15T07:33:45;38.72;;;21.08;;
51286;SDS011;37364;46.974;18.916;2022-10-15T07:36:15;27.73;;;19.88;;
51286;SDS011;37364;46.974;18.916;2022-10-15T07:38:46;30.38;;;21.20;;
51286;SDS011;37364;46.974;18.916;2022-10-15T07:41:19;38.15;;;21.05;;
51286;SDS011;37364;46.974;18.916;2022-10-15T07:43:50;22.98;;;18.35;;
51286;SDS011;37364;46.974;18.916;2022-10-15T07:46:22;33.85;;;18.80;;
51286;SDS011;37364;46.974;18.916;2022-10-15T07:48:53;25.67;;;18.60;;
51286;SDS011;37364;46.974;18.916;2022-10-15T07:51:24;31.00;;;17.45;;
51286;SDS011;37364;46.974;18.916;2022-10-15T07:53:54;27.77;;;18.13;;
51286;SDS011;37364;46.974;18.916;2022-10-15T07:56:27;26.65;;;17.70;;
51286;SDS011;37364;46.974;18.916;2022-10-15T07:58:57;28.70;;;17.92;;
51286;SDS011;37364;46.974;18.916;2022-10-15T08:01:30;24.27;;;17.65;;
51286;SDS011;37364;46.974;18.916;2022-10-15T08:04:01;25.25;;;16.38;;
51286;SDS011;37364;46.974;18.916;2022-10-15T08:06:36;34.50;;;16.98;;
51286;SDS011;37364;46.974;18.916;2022-10-15T08:09:06;27.98;;;16.70;;
51286;SDS011;37364;46.974;18.916;2022-10-15T08:11:39;30.63;;;16.23;;
51286;SDS011;37364;46.974;18.916;2022-10-15T08:14:10;25.50;;;15.70;;
51286;SDS011;37364;46.974;18.916;2022-10-15T08:16:41;44.67;;;16.98;;
51286;SDS011;37364;46.974;18.916;2022-10-15T08:19:11;27.00;;;16.85;;
51286;SDS011;37364;46.974;18.916;2022-10-15T08:21:44;33.33;;;16.75;;
51286;SDS011;37364;46.974;18.916;2022-10-15T08:24:14;23.55;;;15.65;;
51286;SDS011;37364;46.974;18.916;2022-10-15T08:26:47;30.30;;;16.42;;
51286;SDS011;37364;46.974;18.916;2022-10-15T08:29:17;35.70;;;15.68;;
51286;SDS011;37364;46.974;18.916;2022-10-15T08:31:48;26.40;;;15.32;;
51286;SDS011;37364;46.974;18.916;2022-10-15T08:34:22;21.08;;;14.82;;
51286;SDS011;37364;46.974;18.916;2022-10-15T08:36:52;19.00;;;13.73;;
51286;SDS011;37364;46.974;18.916;2022-10-15T08:39:22;29.50;;;14.02;;
51286;SDS011;37364;46.974;18.916;2022-10-15T08:41:55;20.52;;;14.93;;
51286;SDS011;37364;46.974;18.916;2022-10-15T08:44:32;24.27;;;16.13;;
51286;SDS011;37364;46.974;18.916;2022-10-15T08:47:08;25.02;;;15.77;;
51286;SDS011;37364;46.974;18.916;2022-10-15T08:49:50;22.92;;;14.23;;
51286;SDS011;37364;46.974;18.916;2022-10-15T08:52:24;22.42;;;14.48;;
51286;SDS011;37364;46.974;18.916;2022-10-15T08:54:58;30.48;;;14.32;;
51286;SDS011;37364;46.974;18.916;2022-10-15T08:57:35;27.27;;;15.83;;
51286;SDS011;37364;46.974;18.916;2022-10-15T09:00:13;22.40;;;14.82;;
51286;SDS011;37364;46.974;18.916;2022-10-15T09:02:49;26.45;;;16.08;;
51286;SDS011;37364;46.974;18.916;2022-10-15T09:05:27;36.92;;;13.10;;
51286;SDS011;37364;46.974;18.916;2022-10-15T09:08:03;29.25;;;15.40;;
51286;SDS011;37364;46.974;18.916;2022-10-15T09:10:43;28.73;;;14.23;;
51286;SDS011;37364;46.974;18.916;2022-10-15T09:13:20;20.42;;;13.75;;
51286;SDS011;37364;46.974;18.916;2022-10-15T09:15:55;24.33;;;13.27;;
51286;SDS011;37364;46.974;18.916;2022-10-15T09:18:31;34.08;;;13.38;;
51286;SDS011;37364;46.974;18.916;2022-10-15T09:21:04;18.90;;;12.70;;
51286;SDS011;37364;46.974;18.916;2022-10-15T09:23:37;28.40;;;12.27;;
51286;SDS011;37364;46.974;18.916;2022-10-15T09:26:14;24.67;;;11.07;;
51286;SDS011;37364;46.974;18.916;2022-10-15T09:28:55;32.67;;;16.23;;
51286;SDS011;37364;46.974;18.916;2022-10-15T09:31:33;20.23;;;14.13;;
51286;SDS011;37364;46.974;18.916;2022-10-15T09:34:10;36.47;;;14.00;;
51286;SDS011;37364;46.974;18.916;2022-10-15T09:36:47;31.65;;;12.68;;
51286;SDS011;37364;46.974;18.916;2022-10-15T09:42:23;20.52;;;11.88;;
51286;SDS011;37364;46.974;18.916;2022-10-15T09:45:01;28.75;;;13.18;;
51286;SDS011;37364;46.974;18.916;2022-10-15T09:47:34;24.83;;;11.75;;
51286;SDS011;37364;46.974;18.916;2022-10-15T09:50:05;34.25;;;11.50;;
51286;SDS011;37364;46.974;18.916;2022-10-15T09:52:43;19.52;;;10.20;;
51286;SDS011;37364;46.974;18.916;2022-10-15T09:55:26;22.48;;;10.70;;
51286;SDS011;37364;46.974;18.916;2022-10-15T09:58:04;15.85;;;9.27;;
51286;SDS011;37364;46.974;18.916;2022-10-15T10:00:54;23.23;;;8.98;;
51286;SDS011;37364;46.974;18.916;2022-10-15T10:03:33;24.73;;;9.33;;
51286;SDS011;37364;46.974;18.916;2022-10-15T10:06:05;12.30;;;7.47;;
51286;SDS011;37364;46.974;18.916;2022-10-15T10:08:46;20.42;;;8.90;;
51286;SDS011;37364;46.974;18.916;2022-10-15T10:11:21;11.35;;;7.88;;
51286;SDS011;37364;46.974;18.916;2022-10-15T10:13:52;25.00;;;8.98;;
51286;SDS011;37364;46.974;18.916;2022-10-15T10:16:27;42.97;;;8.95;;
51286;SDS011;37364;46.974;18.916;2022-10-15T10:19:04;20.35;;;9.13;;
51286;SDS011;37364;46.974;18.916;2022-10-15T10:21:41;25.80;;;8.90;;
51286;SDS011;37364;46.974;18.916;2022-10-15T10:24:18;24.17;;;11.00;;
51286;SDS011;37364;46.974;18.916;2022-10-15T10:26:54;25.67;;;13.43;;
51286;SDS011;37364;46.974;18.916;2022-10-15T10:29:24;16.75;;;8.38;;
51286;SDS011;37364;46.974;18.916;2022-10-15T10:32:10;13.57;;;7.63;;
51286;SDS011;37364;46.974;18.916;2022-10-15T10:34:46;21.13;;;8.88;;
51286;SDS011;37364;46.974;18.916;2022-10-15T10:37:18;14.50;;;7.70;;
51286;SDS011;37364;46.974;18.916;2022-10-15T10:39:53;16.25;;;7.45;;
51286;SDS011;37364;46.974;18.916;2022-10-15T10:42:27;17.42;;;7.38;;
51286;SDS011;37364;46.974;18.916;2022-10-15T10:45:16;23.63;;;7.38;;
51286;SDS011;37364;46.974;18.916;2022-10-15T10:48:22;13.70;;;6.45;;
51286;SDS011;37364;46.974;18.916;2022-10-15T10:51:01;13.35;;;7.63;;
51286;SDS011;37364;46.974;18.916;2022-10-15T10:53:37;17.08;;;7.45;;
51286;SDS011;37364;46.974;18.916;2022-10-15T10:56:21;21.13;;;6.78;;
51286;SDS011;37364;46.974;18.916;2022-10-15T10:58:56;16.05;;;6.47;;
51286;SDS011;37364;46.974;18.916;2022-10-15T11:01:29;11.73;;;6.43;;
51286;SDS011;37364;46.974;18.916;2022-10-15T11:04:03;30.58;;;6.60;;
51286;SDS011;37364;46.974;18.916;2022-10-15T11:06:55;9.80;;;6.13;;
51286;SDS011;37364;46.974;18.916;2022-10-15T11:09:39;17.40;;;6.80;;
51286;SDS011;37364;46.974;18.916;2022-10-15T11:15:18;15.77;;;5.72;;
51286;SDS011;37364;46.974;18.916;2022-10-15T11:18:01;20.05;;;7.05;;
51286;SDS011;37364;46.974;18.916;2022-10-15T11:20:50;20.60;;;7.85;;
51286;SDS011;37364;46.974;18.916;2022-10-15T11:23:45;24.90;;;11.80;;
51286;SDS011;37364;46.974;18.916;2022-10-15T11:26:40;34.08;;;10.88;;
51286;SDS011;37364;46.974;18.916;2022-10-15T11:29:45;26.98;;;10.48;;
51286;SDS011;37364;46.974;18.916;2022-10-15T11:32:26;24.17;;;10.32;;
51286;SDS011;37364;46.974;18.916;2022-10-15T11:35:29;20.88;;;9.50;;
51286;SDS011;37364;46.974;18.916;2022-10-15T11:38:26;33.83;;;9.25;;
51286;SDS011;37364;46.974;18.916;2022-10-15T11:41:06;18.52;;;8.48;;
51286;SDS011;37364;46.974;18.916;2022-10-15T11:43:54;38.20;;;11.93;;
51286;SDS011;37364;46.974;18.916;2022-10-15T11:46:36;29.25;;;9.23;;
51286;SDS011;37364;46.974;18.916;2022-10-15T11:49:15;21.65;;;8.40;;
51286;SDS011;37364;46.974;18.916;2022-10-15T11:52:03;22.60;;;8.60;;
51286;SDS011;37364;46.974;18.916;2022-10-15T11:54:51;26.35;;;9.57;;
51286;SDS011;37364;46.974;18.916;2022-10-15T11:57:31;27.15;;;10.23;;
51286;SDS011;37364;46.974;18.916;2022-10-15T12:00:08;34.55;;;13.95;;
51286;SDS011;37364;46.974;18.916;2022-10-15T12:02:50;20.77;;;8.50;;
51286;SDS011;37364;46.974;18.916;2022-10-15T12:05:25;18.42;;;7.18;;
51286;SDS011;37364;46.974;18.916;2022-10-15T12:08:02;24.52;;;9.32;;
51286;SDS011;37364;46.974;18.916;2022-10-15T12:10:44;29.02;;;8.75;;
51286;SDS011;37364;46.974;18.916;2022-10-15T12:13:25;27.20;;;8.52;;
51286;SDS011;37364;46.974;18.916;2022-10-15T12:16:05;21.75;;;8.48;;
51286;SDS011;37364;46.974;18.916;2022-10-15T12:18:44;25.42;;;9.95;;
51286;SDS011;37364;46.974;18.916;2022-10-15T12:21:32;33.97;;;9.95;;
51286;SDS011;37364;46.974;18.916;2022-10-15T12:24:05;20.48;;;7.70;;
51286;SDS011;37364;46.974;18.916;2022-10-15T12:27:18;32.00;;;10.65;;
51286;SDS011;37364;46.974;18.916;2022-10-15T12:29:51;15.25;;;7.10;;
51286;SDS011;37364;46.974;18.916;2022-10-15T12:32:47;22.75;;;6.38;;
51286;SDS011;37364;46.974;18.916;2022-10-15T12:35:20;11.55;;;5.47;;
51286;SDS011;37364;46.974;18.916;2022-10-15T12:38:09;13.43;;;5.05;;
51286;SDS011;37364;46.974;18.916;2022-10-15T12:40:47;26.98;;;5.95;;
51286;SDS011;37364;46.974;18.916;2022-10-15T12:43:29;16.02;;;5.15;;
51286;SDS011;37364;46.974;18.916;2022-10-15T12:46:02;15.38;;;5.30;;
51286;SDS011;37364;46.974;18.916;2022-10-15T12:48:35;18.88;;;5.78;;
51286;SDS011;37364;46.974;18.916;2022-10-15T12:54:01;7.28;;;5.15;;
51286;SDS011;37364;46.974;18.916;2022-10-15T12:56:51;12.15;;;4.75;;
51286;SDS011;37364;46.974;18.916;2022-10-15T12:59:51;13.05;;;5.20;;
51286;SDS011;37364;46.974;18.916;2022-10-15T13:02:35;14.90;;;5.63;;
51286;SDS011;37364;46.974;18.916;2022-10-15T13:05:08;13.88;;;5.57;;
51286;SDS011;37364;46.974;18.916;2022-10-15T13:07:53;18.35;;;5.45;;
51286;SDS011;37364;46.974;18.916;2022-10-15T13:10:26;11.27;;;5.63;;
51286;SDS011;37364;46.974;18.916;2022-10-15T13:12:59;14.32;;;5.13;;
51286;SDS011;37364;46.974;18.916;2022-10-15T13:15:35;7.13;;;4.97;;
51286;SDS011;37364;46.974;18.916;2022-10-15T13:18:06;11.57;;;5.07;;
51286;SDS011;37364;46.974;18.916;2022-10-15T13:20:42;14.82;;;4.65;;
51286;SDS011;37364;46.974;18.916;2022-10-15T13:23:16;13.10;;;4.90;;
51286;SDS011;37364;46.974;18.916;2022-10-15T13:26:09;12.80;;;4.15;;
51286;SDS011;37364;46.974;18.916;2022-10-15T13:28:41;23.17;;;5.15;;
51286;SDS011;37364;46.974;18.916;2022-10-15T13:31:17;16.60;;;4.60;;
51286;SDS011;37364;46.974;18.916;2022-10-15T13:33:57;14.52;;;5.28;;
51286;SDS011;37364;46.974;18.916;2022-10-15T13:36:31;7.20;;;4.70;;
51286;SDS011;37364;46.974;18.916;2022-10-15T13:39:04;14.02;;;5.78;;
51286;SDS011;37364;46.974;18.916;2022-10-15T13:41:36;20.25;;;6.43;;
51286;SDS011;37364;46.974;18.916;2022-10-15T13:44:16;27.90;;;6.80;;
51286;SDS011;37364;46.974;18.916;2022-10-15T13:46:52;20.92;;;8.40;;
51286;SDS011;37364;46.974;18.916;2022-10-15T13:49:22;19.67;;;6.93;;
51286;SDS011;37364;46.974;18.916;2022-10-15T13:51:54;30.63;;;7.70;;
51286;SDS011;37364;46.974;18.916;2022-10-15T13:54:27;17.67;;;7.47;;
51286;SDS011;37364;46.974;18.916;2022-10-15T13:56:59;12.43;;;5.38;;
51286;SDS011;37364;46.974;18.916;2022-10-15T13:59:30;12.60;;;5.75;;
51286;SDS011;37364;46.974;18.916;2022-10-15T14:02:09;16.50;;;6.03;;
51286;SDS011;37364;46.974;18.916;2022-10-15T14:04:40;11.10;;;4.95;;
51286;SDS011;37364;46.974;18.916;2022-10-15T14:07:21;9.10;;;5.68;;
51286;SDS011;37364;46.974;18.916;2022-10-15T14:09:53;8.48;;;4.63;;
51286;SDS011;37364;46.974;18.916;2022-10-15T14:12:23;13.07;;;4.78;;
51286;SDS011;37364;46.974;18.916;2022-10-15T14:14:57;20.52;;;6.45;;
51286;SDS011;37364;46.974;18.916;2022-10-15T14:18:05;14.07;;;5.93;;
51286;SDS011;37364;46.974;18.916;2022-10-15T14:20:36;17.08;;;5.22;;
51286;SDS011;37364;46.974;18.916;2022-10-15T14:23:12;27.70;;;5.22;;
51286;SDS011;37364;46.974;18.916;2022-10-15T14:25:44;14.82;;;5.70;;
51286;SDS011;37364;46.974;18.916;2022-10-15T14:28:21;14.52;;;5.53;;
51286;SDS011;37364;46.974;18.916;2022-10-15T14:30:52;9.70;;;5.68;;
51286;SDS011;37364;46.974;18.916;2022-10-15T14:33:41;17.20;;;7.65;;
51286;SDS011;37364;46.974;18.916;2022-10-15T14:36:21;44.42;;;14.40;;
51286;SDS011;37364;46.974;18.916;2022-10-15T14:38:53;48.65;;;20.02;;
51286;SDS011;37364;46.974;18.916;2022-10-15T14:41:26;72.10;;;25.15;;
51286;SDS011;37364;46.974;18.916;2022-10-15T14:44:01;92.68;;;28.27;;
51286;SDS011;37364;46.974;18.916;2022-10-15T14:46:45;53.03;;;22.92;;
51286;SDS011;37364;46.974;18.916;2022-10-15T14:49:22;39.03;;;18.87;;
51286;SDS011;37364;46.974;18.916;2022-10-15T14:51:59;50.38;;;20.20;;
51286;SDS011;37364;46.974;18.916;2022-10-15T14:54:34;54.95;;;21.25;;
51286;SDS011;37364;46.974;18.916;2022-10-15T14:57:11;63.78;;;28.52;;
51286;SDS011;37364;46.974;18.916;2022-10-15T14:59:50;81.93;;;36.63;;
51286;SDS011;37364;46.974;18.916;2022-10-15T15:02:22;128.73;;;51.40;;
51286;SDS011;37364;46.974;18.916;2022-10-15T15:05:06;125.85;;;48.63;;
51286;SDS011;37364;46.974;18.916;2022-10-15T15:07:45;134.55;;;50.97;;
51286;SDS011;37364;46.974;18.916;2022-10-15T15:10:16;160.65;;;61.00;;
51286;SDS011;37364;46.974;18.916;2022-10-15T15:12:48;168.95;;;60.75;;
51286;SDS011;37364;46.974;18.916;2022-10-15T15:15:20;157.35;;;66.32;;
51286;SDS011;37364;46.974;18.916;2022-10-15T15:17:53;151.70;;;61.28;;
51286;SDS011;37364;46.974;18.916;2022-10-15T15:20:26;152.77;;;61.40;;
51286;SDS011;37364;46.974;18.916;2022-10-15T15:22:56;193.82;;;68.97;;
51286;SDS011;37364;46.974;18.916;2022-10-15T15:25:27;184.07;;;66.05;;
51286;SDS011;37364;46.974;18.916;2022-10-15T15:28:01;208.15;;;80.50;;
51286;SDS011;37364;46.974;18.916;2022-10-15T15:30:31;230.15;;;84.95;;